sensor_id;sensor_type;location;lat;lon;timestamp;P1;durP1;ratioP1;P2;durP2;ratioP2
22525;SDS011;11429;50.842;4.386;2022-11-20T00:02:24;58.25;;;33.88;;
22525;SDS011;11429;50.842;4.386;2022-11-20T00:04:50;55.58;;;33.38;;
22525;SDS011;11429;50.842;4.386;2022-11-20T00:07:15;55.40;;;32.67;;
22525;SDS011;11429;50.842;4.386;2022-11-20T00:09:41;54.88;;;32.47;;
22525;SDS011;11429;50.842;4.386;2022-11-20T00:12:07;61.97;;;34.60;;
22525;SDS011;11429;50.842;4.386;2022-11-20T00:14:32;52.90;;;32.22;;
22525;SDS011;11429;50.842;4.386;2022-11-20T00:16:58;54.72;;;34.08;;
22525;SDS011;11429;50.842;4.386;2022-11-20T00:19:24;54.70;;;33.85;;
22525;SDS011;11429;50.842;4.386;2022-11-20T00:21:49;50.45;;;32.53;;
22525;SDS011;11429;50.842;4.386;2022-11-20T00:24:20;46.95;;;31.27;;
22525;SDS011;11429;50.842;4.386;2022-11-20T00:26:46;50.65;;;32.03;;
22525;SDS011;11429;50.842;4.386;2022-11-20T00:29:12;53.00;;;32.13;;
22525;SDS011;11429;50.842;4.386;2022-11-20T00:31:37;52.63;;;32.08;;
22525;SDS011;11429;50.842;4.386;2022-11-20T00:34:03;50.30;;;32.40;;
22525;SDS011;11429;50.842;4.386;2022-11-20T00:36:31;52.30;;;33.28;;
22525;SDS011;11429;50.842;4.386;2022-11-20T00:38:58;48.00;;;31.48;;
22525;SDS011;11429;50.842;4.386;2022-11-20T00:41:24;52.70;;;33.88;;
22525;SDS011;11429;50.842;4.386;2022-11-20T00:43:51;48.50;;;32.47;;
22525;SDS011;11429;50.842;4.386;2022-11-20T00:46:19;50.72;;;32.67;;
22525;SDS011;11429;50.842;4.386;2022-11-20T00:48:46;51.47;;;33.75;;
22525;SDS011;11429;50.842;4.386;2022-11-20T00:51:13;49.10;;;32.08;;
22525;SDS011;11429;50.842;4.386;2022-11-20T00:53:40;49.55;;;31.20;;
22525;SDS011;11429;50.842;4.386;2022-11-20T00:56:06;47.50;;;31.08;;
22525;SDS011;11429;50.842;4.386;2022-11-20T00:58:36;52.70;;;31.42;;
22525;SDS011;11429;50.842;4.386;2022-11-20T01:01:03;47.47;;;32.05;;
22525;SDS011;11429;50.842;4.386;2022-11-20T01:03:34;49.17;;;31.08;;
22525;SDS011;11429;50.842;4.386;2022-11-20T01:06:02;53.80;;;31.85;;
22525;SDS011;11429;50.842;4.386;2022-11-20T01:08:33;54.33;;;31.08;;
22525;SDS011;11429;50.842;4.386;2022-11-20T01:11:00;47.90;;;30.40;;
22525;SDS011;11429;50.842;4.386;2022-11-20T01:13:27;48.13;;;30.05;;
22525;SDS011;11429;50.842;4.386;2022-11-20T01:16:13;47.00;;;29.70;;
22525;SDS011;11429;50.842;4.386;2022-11-20T01:19:07;47.42;;;29.52;;
22525;SDS011;11429;50.842;4.386;2022-11-20T01:21:38;44.75;;;30.30;;
22525;SDS011;11429;50.842;4.386;2022-11-20T01:24:06;47.22;;;29.85;;
22525;SDS011;11429;50.842;4.386;2022-11-20T01:26:35;45.05;;;31.70;;
22525;SDS011;11429;50.842;4.386;2022-11-20T01:29:04;45.97;;;30.27;;
22525;SDS011;11429;50.842;4.386;2022-11-20T01:31:32;47.17;;;30.55;;
22525;SDS011;11429;50.842;4.386;2022-11-20T01:34:00;43.67;;;29.17;;
22525;SDS011;11429;50.842;4.386;2022-11-20T01:36:29;50.05;;;30.70;;
22525;SDS011;11429;50.842;4.386;2022-11-20T01:38:57;46.90;;;31.35;;
22525;SDS011;11429;50.842;4.386;2022-11-20T01:41:25;48.75;;;30.60;;
22525;SDS011;11429;50.842;4.386;2022-11-20T01:44:12;50.00;;;31.73;;
22525;SDS011;11429;50.842;4.386;2022-11-20T01:46:40;47.63;;;31.15;;
22525;SDS011;11429;50.842;4.386;2022-11-20T01:49:19;43.92;;;29.65;;
22525;SDS011;11429;50.842;4.386;2022-11-20T01:54:22;48.65;;;31.95;;
22525;SDS011;11429;50.842;4.386;2022-11-20T01:59:22;48.60;;;30.30;;
22525;SDS011;11429;50.842;4.386;2022-11-20T02:01:51;51.17;;;31.77;;
22525;SDS011;11429;50.842;4.386;2022-11-20T02:04:17;51.00;;;32.47;;
22525;SDS011;11429;50.842;4.386;2022-11-20T02:06:46;50.45;;;31.92;;
22525;SDS011;11429;50.842;4.386;2022-11-20T02:09:15;49.20;;;31.08;;
22525;SDS011;11429;50.842;4.386;2022-11-20T02:11:40;53.08;;;31.48;;
22525;SDS011;11429;50.842;4.386;2022-11-20T02:14:06;52.60;;;33.28;;
22525;SDS011;11429;50.842;4.386;2022-11-20T02:16:34;53.40;;;31.88;;
22525;SDS011;11429;50.842;4.386;2022-11-20T02:19:04;54.38;;;32.92;;
22525;SDS011;11429;50.842;4.386;2022-11-20T02:21:40;60.60;;;33.00;;
22525;SDS011;11429;50.842;4.386;2022-11-20T02:24:19;53.95;;;32.35;;
22525;SDS011;11429;50.842;4.386;2022-11-20T02:26:49;56.33;;;34.33;;
22525;SDS011;11429;50.842;4.386;2022-11-20T02:29:36;56.47;;;33.88;;
22525;SDS011;11429;50.842;4.386;2022-11-20T02:32:05;51.78;;;30.98;;
22525;SDS011;11429;50.842;4.386;2022-11-20T02:34:31;53.28;;;33.60;;
22525;SDS011;11429;50.842;4.386;2022-11-20T02:36:57;53.90;;;31.20;;
22525;SDS011;11429;50.842;4.386;2022-11-20T02:39:25;53.30;;;29.33;;
22525;SDS011;11429;50.842;4.386;2022-11-20T02:41:53;54.78;;;30.73;;
22525;SDS011;11429;50.842;4.386;2022-11-20T02:44:21;52.20;;;31.00;;
22525;SDS011;11429;50.842;4.386;2022-11-20T02:46:46;45.05;;;28.38;;
22525;SDS011;11429;50.842;4.386;2022-11-20T02:49:12;46.63;;;29.20;;
22525;SDS011;11429;50.842;4.386;2022-11-20T02:51:37;47.78;;;28.38;;
22525;SDS011;11429;50.842;4.386;2022-11-20T02:54:03;45.00;;;28.10;;
22525;SDS011;11429;50.842;4.386;2022-11-20T02:56:29;51.30;;;29.83;;
22525;SDS011;11429;50.842;4.386;2022-11-20T02:58:55;44.75;;;28.13;;
22525;SDS011;11429;50.842;4.386;2022-11-20T03:01:21;52.38;;;29.20;;
22525;SDS011;11429;50.842;4.386;2022-11-20T03:03:46;51.65;;;28.98;;
22525;SDS011;11429;50.842;4.386;2022-11-20T03:06:14;46.65;;;28.27;;
22525;SDS011;11429;50.842;4.386;2022-11-20T03:08:41;50.35;;;29.10;;
22525;SDS011;11429;50.842;4.386;2022-11-20T03:11:07;43.85;;;27.50;;
22525;SDS011;11429;50.842;4.386;2022-11-20T03:13:33;45.80;;;28.05;;
22525;SDS011;11429;50.842;4.386;2022-11-20T03:16:13;44.13;;;25.92;;
22525;SDS011;11429;50.842;4.386;2022-11-20T03:18:40;41.45;;;24.05;;
22525;SDS011;11429;50.842;4.386;2022-11-20T03:21:06;40.50;;;23.27;;
22525;SDS011;11429;50.842;4.386;2022-11-20T03:23:32;36.92;;;21.73;;
22525;SDS011;11429;50.842;4.386;2022-11-20T03:26:15;40.15;;;23.08;;
22525;SDS011;11429;50.842;4.386;2022-11-20T03:28:50;35.80;;;22.35;;
22525;SDS011;11429;50.842;4.386;2022-11-20T03:31:19;37.65;;;22.45;;
22525;SDS011;11429;50.842;4.386;2022-11-20T03:34:07;39.72;;;23.23;;
22525;SDS011;11429;50.842;4.386;2022-11-20T03:36:34;39.47;;;22.65;;
22525;SDS011;11429;50.842;4.386;2022-11-20T03:39:00;40.10;;;23.50;;
22525;SDS011;11429;50.842;4.386;2022-11-20T03:41:27;38.97;;;23.17;;
22525;SDS011;11429;50.842;4.386;2022-11-20T03:43:55;44.38;;;23.60;;
22525;SDS011;11429;50.842;4.386;2022-11-20T03:46:26;43.63;;;25.88;;
22525;SDS011;11429;50.842;4.386;2022-11-20T03:48:52;46.88;;;24.77;;
22525;SDS011;11429;50.842;4.386;2022-11-20T03:51:20;46.90;;;24.95;;
22525;SDS011;11429;50.842;4.386;2022-11-20T03:53:47;43.85;;;24.33;;
22525;SDS011;11429;50.842;4.386;2022-11-20T03:56:15;47.53;;;25.55;;
22525;SDS011;11429;50.842;4.386;2022-11-20T03:58:42;45.10;;;25.70;;
22525;SDS011;11429;50.842;4.386;2022-11-20T04:01:11;44.13;;;26.05;;
22525;SDS011;11429;50.842;4.386;2022-11-20T04:03:39;46.80;;;27.23;;
22525;SDS011;11429;50.842;4.386;2022-11-20T04:06:17;47.65;;;26.15;;
22525;SDS011;11429;50.842;4.386;2022-11-20T04:08:45;48.90;;;26.90;;
22525;SDS011;11429;50.842;4.386;2022-11-20T04:13:37;47.47;;;25.98;;
22525;SDS011;11429;50.842;4.386;2022-11-20T04:16:04;51.97;;;28.45;;
22525;SDS011;11429;50.842;4.386;2022-11-20T04:18:30;50.92;;;27.05;;
22525;SDS011;11429;50.842;4.386;2022-11-20T04:20:58;51.70;;;28.50;;
22525;SDS011;11429;50.842;4.386;2022-11-20T04:23:25;51.30;;;27.58;;
22525;SDS011;11429;50.842;4.386;2022-11-20T04:25:51;53.63;;;28.23;;
22525;SDS011;11429;50.842;4.386;2022-11-20T04:28:17;59.00;;;29.65;;
22525;SDS011;11429;50.842;4.386;2022-11-20T04:30:43;54.50;;;28.35;;
22525;SDS011;11429;50.842;4.386;2022-11-20T04:33:08;54.33;;;28.05;;
22525;SDS011;11429;50.842;4.386;2022-11-20T04:35:34;58.95;;;31.15;;
22525;SDS011;11429;50.842;4.386;2022-11-20T04:38:00;58.58;;;29.05;;
22525;SDS011;11429;50.842;4.386;2022-11-20T04:40:27;58.60;;;29.73;;
22525;SDS011;11429;50.842;4.386;2022-11-20T04:42:53;56.50;;;30.42;;
22525;SDS011;11429;50.842;4.386;2022-11-20T04:45:19;59.30;;;29.65;;
22525;SDS011;11429;50.842;4.386;2022-11-20T04:47:45;55.25;;;29.55;;
22525;SDS011;11429;50.842;4.386;2022-11-20T04:50:11;59.50;;;30.05;;
22525;SDS011;11429;50.842;4.386;2022-11-20T04:52:36;59.65;;;30.08;;
22525;SDS011;11429;50.842;4.386;2022-11-20T04:55:02;57.33;;;30.83;;
22525;SDS011;11429;50.842;4.386;2022-11-20T04:57:28;59.85;;;30.80;;
22525;SDS011;11429;50.842;4.386;2022-11-20T04:59:54;59.22;;;30.35;;
22525;SDS011;11429;50.842;4.386;2022-11-20T05:02:20;65.60;;;30.35;;
22525;SDS011;11429;50.842;4.386;2022-11-20T05:04:45;61.55;;;29.88;;
22525;SDS011;11429;50.842;4.386;2022-11-20T05:07:11;62.63;;;31.60;;
22525;SDS011;11429;50.842;4.386;2022-11-20T05:09:37;60.05;;;30.35;;
22525;SDS011;11429;50.842;4.386;2022-11-20T05:12:02;61.83;;;30.33;;
22525;SDS011;11429;50.842;4.386;2022-11-20T05:14:28;60.47;;;30.80;;
22525;SDS011;11429;50.842;4.386;2022-11-20T05:16:54;64.18;;;30.20;;
22525;SDS011;11429;50.842;4.386;2022-11-20T05:19:19;66.53;;;31.55;;
22525;SDS011;11429;50.842;4.386;2022-11-20T05:21:45;57.85;;;29.67;;
22525;SDS011;11429;50.842;4.386;2022-11-20T05:24:11;66.30;;;32.58;;
22525;SDS011;11429;50.842;4.386;2022-11-20T05:26:36;66.78;;;32.33;;
22525;SDS011;11429;50.842;4.386;2022-11-20T05:29:02;64.40;;;33.20;;
22525;SDS011;11429;50.842;4.386;2022-11-20T05:31:28;65.68;;;32.30;;
22525;SDS011;11429;50.842;4.386;2022-11-20T05:33:54;69.63;;;32.72;;
22525;SDS011;11429;50.842;4.386;2022-11-20T05:36:21;64.07;;;31.67;;
22525;SDS011;11429;50.842;4.386;2022-11-20T05:38:47;71.45;;;35.60;;
22525;SDS011;11429;50.842;4.386;2022-11-20T05:41:13;71.95;;;33.97;;
22525;SDS011;11429;50.842;4.386;2022-11-20T05:43:42;74.03;;;34.25;;
22525;SDS011;11429;50.842;4.386;2022-11-20T05:46:09;72.65;;;33.10;;
22525;SDS011;11429;50.842;4.386;2022-11-20T05:48:36;63.78;;;30.80;;
22525;SDS011;11429;50.842;4.386;2022-11-20T05:51:03;63.90;;;31.88;;
22525;SDS011;11429;50.842;4.386;2022-11-20T05:53:31;71.45;;;33.58;;
22525;SDS011;11429;50.842;4.386;2022-11-20T05:56:02;66.57;;;31.35;;
22525;SDS011;11429;50.842;4.386;2022-11-20T05:58:38;72.47;;;34.88;;
22525;SDS011;11429;50.842;4.386;2022-11-20T06:01:05;69.00;;;31.75;;
22525;SDS011;11429;50.842;4.386;2022-11-20T06:03:32;69.40;;;31.73;;
22525;SDS011;11429;50.842;4.386;2022-11-20T06:05:58;70.82;;;33.42;;
22525;SDS011;11429;50.842;4.386;2022-11-20T06:08:25;69.57;;;31.95;;
22525;SDS011;11429;50.842;4.386;2022-11-20T06:10:50;74.35;;;33.42;;
22525;SDS011;11429;50.842;4.386;2022-11-20T06:13:18;74.28;;;33.13;;
22525;SDS011;11429;50.842;4.386;2022-11-20T06:15:48;70.72;;;32.13;;
22525;SDS011;11429;50.842;4.386;2022-11-20T06:18:17;73.25;;;32.90;;
22525;SDS011;11429;50.842;4.386;2022-11-20T06:20:43;71.82;;;32.85;;
22525;SDS011;11429;50.842;4.386;2022-11-20T06:23:10;72.15;;;34.00;;
22525;SDS011;11429;50.842;4.386;2022-11-20T06:25:42;77.63;;;33.90;;
22525;SDS011;11429;50.842;4.386;2022-11-20T06:28:08;72.60;;;33.75;;
22525;SDS011;11429;50.842;4.386;2022-11-20T06:30:34;66.40;;;30.00;;
22525;SDS011;11429;50.842;4.386;2022-11-20T06:33:00;67.97;;;33.10;;
22525;SDS011;11429;50.842;4.386;2022-11-20T06:35:26;74.13;;;30.80;;
22525;SDS011;11429;50.842;4.386;2022-11-20T06:37:52;71.53;;;32.45;;
22525;SDS011;11429;50.842;4.386;2022-11-20T06:40:17;71.82;;;31.30;;
22525;SDS011;11429;50.842;4.386;2022-11-20T06:42:43;76.75;;;32.75;;
22525;SDS011;11429;50.842;4.386;2022-11-20T06:45:09;76.38;;;33.70;;
22525;SDS011;11429;50.842;4.386;2022-11-20T06:47:35;82.30;;;36.05;;
22525;SDS011;11429;50.842;4.386;2022-11-20T06:50:01;74.75;;;34.53;;
22525;SDS011;11429;50.842;4.386;2022-11-20T06:52:26;79.28;;;34.50;;
22525;SDS011;11429;50.842;4.386;2022-11-20T06:54:52;77.47;;;34.35;;
22525;SDS011;11429;50.842;4.386;2022-11-20T06:57:18;72.30;;;33.03;;
22525;SDS011;11429;50.842;4.386;2022-11-20T06:59:43;76.75;;;33.55;;
22525;SDS011;11429;50.842;4.386;2022-11-20T07:02:10;72.85;;;32.40;;
22525;SDS011;11429;50.842;4.386;2022-11-20T07:04:36;75.50;;;31.75;;
22525;SDS011;11429;50.842;4.386;2022-11-20T07:07:02;73.82;;;33.17;;
22525;SDS011;11429;50.842;4.386;2022-11-20T07:09:28;76.13;;;32.88;;
22525;SDS011;11429;50.842;4.386;2022-11-20T07:11:54;71.10;;;33.08;;
22525;SDS011;11429;50.842;4.386;2022-11-20T07:14:19;74.57;;;33.20;;
22525;SDS011;11429;50.842;4.386;2022-11-20T07:16:45;73.25;;;33.67;;
22525;SDS011;11429;50.842;4.386;2022-11-20T07:19:13;71.47;;;31.75;;
22525;SDS011;11429;50.842;4.386;2022-11-20T07:21:38;71.05;;;31.90;;
22525;SDS011;11429;50.842;4.386;2022-11-20T07:24:04;72.93;;;32.38;;
22525;SDS011;11429;50.842;4.386;2022-11-20T07:26:31;65.47;;;32.10;;
22525;SDS011;11429;50.842;4.386;2022-11-20T07:28:56;69.63;;;32.45;;
22525;SDS011;11429;50.842;4.386;2022-11-20T07:31:22;67.28;;;32.35;;
22525;SDS011;11429;50.842;4.386;2022-11-20T07:33:48;65.15;;;32.33;;
22525;SDS011;11429;50.842;4.386;2022-11-20T07:36:13;62.83;;;30.85;;
22525;SDS011;11429;50.842;4.386;2022-11-20T07:38:39;67.07;;;30.80;;
22525;SDS011;11429;50.842;4.386;2022-11-20T07:41:05;66.05;;;31.08;;
22525;SDS011;11429;50.842;4.386;2022-11-20T07:43:30;66.53;;;31.58;;
22525;SDS011;11429;50.842;4.386;2022-11-20T07:45:57;73.45;;;32.03;;
22525;SDS011;11429;50.842;4.386;2022-11-20T07:48:23;70.15;;;32.22;;
22525;SDS011;11429;50.842;4.386;2022-11-20T07:50:49;71.00;;;32.40;;
22525;SDS011;11429;50.842;4.386;2022-11-20T07:53:18;67.53;;;31.20;;
22525;SDS011;11429;50.842;4.386;2022-11-20T07:55:45;66.47;;;29.30;;
22525;SDS011;11429;50.842;4.386;2022-11-20T07:58:11;67.65;;;31.75;;
22525;SDS011;11429;50.842;4.386;2022-11-20T08:00:37;69.88;;;31.70;;
22525;SDS011;11429;50.842;4.386;2022-11-20T08:03:06;76.45;;;33.97;;
22525;SDS011;11429;50.842;4.386;2022-11-20T08:05:32;81.32;;;32.83;;
22525;SDS011;11429;50.842;4.386;2022-11-20T08:07:58;75.35;;;32.30;;
22525;SDS011;11429;50.842;4.386;2022-11-20T08:10:23;72.38;;;31.23;;
22525;SDS011;11429;50.842;4.386;2022-11-20T08:12:50;78.68;;;33.25;;
22525;SDS011;11429;50.842;4.386;2022-11-20T08:15:36;80.45;;;32.42;;
22525;SDS011;11429;50.842;4.386;2022-11-20T08:18:07;75.95;;;33.15;;
22525;SDS011;11429;50.842;4.386;2022-11-20T08:20:34;86.38;;;34.05;;
22525;SDS011;11429;50.842;4.386;2022-11-20T08:23:00;75.68;;;32.65;;
22525;SDS011;11429;50.842;4.386;2022-11-20T08:25:28;77.10;;;33.92;;
22525;SDS011;11429;50.842;4.386;2022-11-20T08:27:56;72.57;;;32.75;;
22525;SDS011;11429;50.842;4.386;2022-11-20T08:30:27;75.18;;;31.95;;
22525;SDS011;11429;50.842;4.386;2022-11-20T08:32:53;76.40;;;32.15;;
22525;SDS011;11429;50.842;4.386;2022-11-20T08:35:19;72.90;;;32.00;;
22525;SDS011;11429;50.842;4.386;2022-11-20T08:37:48;70.38;;;31.52;;
22525;SDS011;11429;50.842;4.386;2022-11-20T08:40:14;73.55;;;32.33;;
22525;SDS011;11429;50.842;4.386;2022-11-20T08:42:47;72.18;;;31.77;;
22525;SDS011;11429;50.842;4.386;2022-11-20T08:45:13;76.45;;;31.17;;
22525;SDS011;11429;50.842;4.386;2022-11-20T08:47:39;75.72;;;31.13;;
22525;SDS011;11429;50.842;4.386;2022-11-20T08:50:05;75.70;;;31.60;;
22525;SDS011;11429;50.842;4.386;2022-11-20T08:52:31;66.45;;;31.00;;
22525;SDS011;11429;50.842;4.386;2022-11-20T08:54:56;70.30;;;30.38;;
22525;SDS011;11429;50.842;4.386;2022-11-20T08:57:22;74.30;;;29.80;;
22525;SDS011;11429;50.842;4.386;2022-11-20T08:59:48;63.72;;;28.80;;
22525;SDS011;11429;50.842;4.386;2022-11-20T09:02:14;67.78;;;28.50;;
22525;SDS011;11429;50.842;4.386;2022-11-20T09:04:40;70.88;;;28.90;;
22525;SDS011;11429;50.842;4.386;2022-11-20T09:07:05;66.45;;;29.63;;
22525;SDS011;11429;50.842;4.386;2022-11-20T09:09:31;61.88;;;27.40;;
22525;SDS011;11429;50.842;4.386;2022-11-20T09:11:57;61.95;;;27.52;;
22525;SDS011;11429;50.842;4.386;2022-11-20T09:14:23;55.15;;;27.92;;
22525;SDS011;11429;50.842;4.386;2022-11-20T09:16:53;61.97;;;28.13;;
22525;SDS011;11429;50.842;4.386;2022-11-20T09:19:20;61.45;;;28.65;;
22525;SDS011;11429;50.842;4.386;2022-11-20T09:21:45;56.40;;;26.77;;
22525;SDS011;11429;50.842;4.386;2022-11-20T09:24:11;54.42;;;26.67;;
22525;SDS011;11429;50.842;4.386;2022-11-20T09:26:37;52.78;;;26.75;;
22525;SDS011;11429;50.842;4.386;2022-11-20T09:29:02;56.15;;;26.40;;
22525;SDS011;11429;50.842;4.386;2022-11-20T09:31:28;50.92;;;25.15;;
22525;SDS011;11429;50.842;4.386;2022-11-20T09:33:54;47.70;;;24.50;;
22525;SDS011;11429;50.842;4.386;2022-11-20T09:36:19;49.78;;;26.45;;
22525;SDS011;11429;50.842;4.386;2022-11-20T09:38:47;54.05;;;25.83;;
22525;SDS011;11429;50.842;4.386;2022-11-20T09:46:40;43.95;;;22.95;;
22525;SDS011;11429;50.842;4.386;2022-11-20T09:49:45;39.60;;;21.10;;
22525;SDS011;11429;50.842;4.386;2022-11-20T09:55:08;38.15;;;20.90;;
22525;SDS011;11429;50.842;4.386;2022-11-20T09:57:37;35.42;;;19.50;;
22525;SDS011;11429;50.842;4.386;2022-11-20T10:00:08;38.75;;;20.65;;
22525;SDS011;11429;50.842;4.386;2022-11-20T10:02:47;35.13;;;19.45;;
22525;SDS011;11429;50.842;4.386;2022-11-20T10:05:21;30.83;;;18.10;;
22525;SDS011;11429;50.842;4.386;2022-11-20T10:07:58;28.23;;;16.40;;
22525;SDS011;11429;50.842;4.386;2022-11-20T10:10:47;31.10;;;17.27;;
22525;SDS011;11429;50.842;4.386;2022-11-20T10:29:12;19.95;;;10.45;;
22525;SDS011;11429;50.842;4.386;2022-11-20T10:31:48;21.05;;;10.25;;
22525;SDS011;11429;50.842;4.386;2022-11-20T10:37:02;18.05;;;10.60;;
22525;SDS011;11429;50.842;4.386;2022-11-20T10:42:28;18.40;;;8.73;;
22525;SDS011;11429;50.842;4.386;2022-11-20T10:45:02;16.42;;;8.93;;
22525;SDS011;11429;50.842;4.386;2022-11-20T10:47:40;16.42;;;8.27;;
22525;SDS011;11429;50.842;4.386;2022-11-20T10:50:09;16.27;;;7.28;;
22525;SDS011;11429;50.842;4.386;2022-11-20T10:55:50;13.95;;;6.78;;
22525;SDS011;11429;50.842;4.386;2022-11-20T10:58:34;13.90;;;6.43;;
22525;SDS011;11429;50.842;4.386;2022-11-20T11:01:19;10.15;;;5.25;;
22525;SDS011;11429;50.842;4.386;2022-11-20T11:03:49;10.10;;;5.07;;
22525;SDS011;11429;50.842;4.386;2022-11-20T11:09:15;11.35;;;4.85;;
22525;SDS011;11429;50.842;4.386;2022-11-20T11:11:44;8.55;;;5.07;;
22525;SDS011;11429;50.842;4.386;2022-11-20T11:14:14;10.20;;;5.07;;
22525;SDS011;11429;50.842;4.386;2022-11-20T11:16:50;9.68;;;4.68;;
22525;SDS011;11429;50.842;4.386;2022-11-20T11:19:20;10.50;;;4.55;;
22525;SDS011;11429;50.842;4.386;2022-11-20T11:21:49;9.68;;;4.07;;
22525;SDS011;11429;50.842;4.386;2022-11-20T11:27:30;9.25;;;4.03;;
22525;SDS011;11429;50.842;4.386;2022-11-20T11:29:41;9.35;;;3.42;;
22525;SDS011;11429;50.842;4.386;2022-11-20T11:32:08;8.35;;;3.38;;
22525;SDS011;11429;50.842;4.386;2022-11-20T11:34:42;11.43;;;4.32;;
22525;SDS011;11429;50.842;4.386;2022-11-20T11:37:18;8.93;;;4.43;;
22525;SDS011;11429;50.842;4.386;2022-11-20T11:39:48;6.78;;;4.25;;
22525;SDS011;11429;50.842;4.386;2022-11-20T11:42:16;13.98;;;4.10;;
22525;SDS011;11429;50.842;4.386;2022-11-20T11:44:44;5.30;;;3.08;;
22525;SDS011;11429;50.842;4.386;2022-11-20T11:47:31;7.90;;;3.35;;
22525;SDS011;11429;50.842;4.386;2022-11-20T11:55:30;7.28;;;3.60;;
22525;SDS011;11429;50.842;4.386;2022-11-20T11:58:09;7.40;;;3.65;;
22525;SDS011;11429;50.842;4.386;2022-11-20T12:00:35;6.57;;;2.92;;
22525;SDS011;11429;50.842;4.386;2022-11-20T12:06:15;11.98;;;3.60;;
22525;SDS011;11429;50.842;4.386;2022-11-20T12:08:49;7.78;;;2.70;;
22525;SDS011;11429;50.842;4.386;2022-11-20T12:13:58;7.03;;;2.75;;
22525;SDS011;11429;50.842;4.386;2022-11-20T12:16:48;6.90;;;2.78;;
22525;SDS011;11429;50.842;4.386;2022-11-20T12:19:15;11.93;;;3.72;;
22525;SDS011;11429;50.842;4.386;2022-11-20T12:22:02;9.38;;;3.60;;
22525;SDS011;11429;50.842;4.386;2022-11-20T12:27:23;5.53;;;2.80;;
22525;SDS011;11429;50.842;4.386;2022-11-20T12:30:16;10.10;;;2.88;;
22525;SDS011;11429;50.842;4.386;2022-11-20T12:33:08;6.57;;;3.47;;
22525;SDS011;11429;50.842;4.386;2022-11-20T12:40:56;6.70;;;3.00;;
22525;SDS011;11429;50.842;4.386;2022-11-20T12:44:14;7.63;;;3.55;;
22525;SDS011;11429;50.842;4.386;2022-11-20T12:52:37;8.82;;;3.38;;
22525;SDS011;11429;50.842;4.386;2022-11-20T12:55:14;8.32;;;3.80;;
22525;SDS011;11429;50.842;4.386;2022-11-20T12:57:49;6.97;;;3.50;;
22525;SDS011;11429;50.842;4.386;2022-11-20T13:00:22;7.95;;;3.47;;
22525;SDS011;11429;50.842;4.386;2022-11-20T13:08:32;9.95;;;3.90;;
22525;SDS011;11429;50.842;4.386;2022-11-20T13:18:39;7.18;;;3.55;;
22525;SDS011;11429;50.842;4.386;2022-11-20T13:21:20;8.40;;;3.35;;
22525;SDS011;11429;50.842;4.386;2022-11-20T13:23:48;8.60;;;3.80;;
22525;SDS011;11429;50.842;4.386;2022-11-20T13:26:20;8.05;;;3.72;;
22525;SDS011;11429;50.842;4.386;2022-11-20T13:28:59;9.60;;;4.43;;
22525;SDS011;11429;50.842;4.386;2022-11-20T13:31:35;6.88;;;4.03;;
22525;SDS011;11429;50.842;4.386;2022-11-20T13:34:09;8.38;;;3.85;;
22525;SDS011;11429;50.842;4.386;2022-11-20T13:36:47;10.00;;;4.20;;
22525;SDS011;11429;50.842;4.386;2022-11-20T13:39:27;7.00;;;4.07;;
22525;SDS011;11429;50.842;4.386;2022-11-20T13:41:59;7.25;;;3.65;;
22525;SDS011;11429;50.842;4.386;2022-11-20T13:44:29;7.13;;;4.30;;
22525;SDS011;11429;50.842;4.386;2022-11-20T13:46:56;6.00;;;3.92;;
22525;SDS011;11429;50.842;4.386;2022-11-20T13:49:38;6.35;;;3.53;;
22525;SDS011;11429;50.842;4.386;2022-11-20T13:55:54;5.38;;;3.17;;
22525;SDS011;11429;50.842;4.386;2022-11-20T14:00:50;4.93;;;2.88;;
22525;SDS011;11429;50.842;4.386;2022-11-20T14:03:23;5.40;;;2.67;;
22525;SDS011;11429;50.842;4.386;2022-11-20T14:06:01;7.40;;;3.03;;
22525;SDS011;11429;50.842;4.386;2022-11-20T14:11:15;3.92;;;2.47;;
22525;SDS011;11429;50.842;4.386;2022-11-20T14:16:20;5.30;;;2.42;;
22525;SDS011;11429;50.842;4.386;2022-11-20T14:18:47;3.30;;;2.08;;
22525;SDS011;11429;50.842;4.386;2022-11-20T14:21:21;4.32;;;2.50;;
22525;SDS011;11429;50.842;4.386;2022-11-20T14:23:48;5.07;;;2.30;;
22525;SDS011;11429;50.842;4.386;2022-11-20T14:26:14;4.82;;;2.92;;
22525;SDS011;11429;50.842;4.386;2022-11-20T14:28:47;3.60;;;2.83;;
22525;SDS011;11429;50.842;4.386;2022-11-20T14:31:18;5.68;;;3.05;;
22525;SDS011;11429;50.842;4.386;2022-11-20T14:33:49;5.77;;;2.50;;
22525;SDS011;11429;50.842;4.386;2022-11-20T14:36:18;3.55;;;2.70;;
22525;SDS011;11429;50.842;4.386;2022-11-20T14:38:48;4.45;;;2.90;;
22525;SDS011;11429;50.842;4.386;2022-11-20T14:41:19;4.80;;;3.45;;
22525;SDS011;11429;50.842;4.386;2022-11-20T14:43:58;4.85;;;3.35;;
22525;SDS011;11429;50.842;4.386;2022-11-20T14:46:26;7.63;;;3.97;;
22525;SDS011;11429;50.842;4.386;2022-11-20T14:48:56;4.63;;;3.35;;
22525;SDS011;11429;50.842;4.386;2022-11-20T14:51:33;6.53;;;3.47;;
22525;SDS011;11429;50.842;4.386;2022-11-20T14:54:16;6.53;;;3.58;;
22525;SDS011;11429;50.842;4.386;2022-11-20T14:56:56;6.93;;;4.22;;
22525;SDS011;11429;50.842;4.386;2022-11-20T14:59:28;6.20;;;3.47;;
22525;SDS011;11429;50.842;4.386;2022-11-20T15:01:56;5.85;;;3.63;;
22525;SDS011;11429;50.842;4.386;2022-11-20T15:04:24;7.75;;;3.85;;
22525;SDS011;11429;50.842;4.386;2022-11-20T15:06:52;5.35;;;3.30;;
22525;SDS011;11429;50.842;4.386;2022-11-20T15:09:19;5.40;;;2.97;;
22525;SDS011;11429;50.842;4.386;2022-11-20T15:11:55;4.70;;;2.80;;
22525;SDS011;11429;50.842;4.386;2022-11-20T15:14:21;5.15;;;3.22;;
22525;SDS011;11429;50.842;4.386;2022-11-20T15:16:48;5.55;;;3.67;;
22525;SDS011;11429;50.842;4.386;2022-11-20T15:19:21;4.47;;;3.05;;
22525;SDS011;11429;50.842;4.386;2022-11-20T15:21:48;6.32;;;3.28;;
22525;SDS011;11429;50.842;4.386;2022-11-20T15:24:14;6.50;;;3.50;;
22525;SDS011;11429;50.842;4.386;2022-11-20T15:26:40;9.38;;;3.75;;
22525;SDS011;11429;50.842;4.386;2022-11-20T15:29:09;9.02;;;4.13;;
22525;SDS011;11429;50.842;4.386;2022-11-20T15:31:37;6.20;;;3.50;;
22525;SDS011;11429;50.842;4.386;2022-11-20T15:34:10;8.52;;;3.83;;
22525;SDS011;11429;50.842;4.386;2022-11-20T15:36:37;7.55;;;3.60;;
22525;SDS011;11429;50.842;4.386;2022-11-20T15:39:03;8.82;;;3.60;;
22525;SDS011;11429;50.842;4.386;2022-11-20T15:41:29;8.32;;;4.30;;
22525;SDS011;11429;50.842;4.386;2022-11-20T15:43:55;10.30;;;4.53;;
22525;SDS011;11429;50.842;4.386;2022-11-20T15:46:24;7.40;;;3.88;;
22525;SDS011;11429;50.842;4.386;2022-11-20T15:48:56;6.85;;;4.03;;
22525;SDS011;11429;50.842;4.386;2022-11-20T15:51:28;10.23;;;4.57;;
22525;SDS011;11429;50.842;4.386;2022-11-20T15:54:11;10.30;;;4.25;;
22525;SDS011;11429;50.842;4.386;2022-11-20T15:56:39;10.07;;;4.15;;
22525;SDS011;11429;50.842;4.386;2022-11-20T15:59:07;9.13;;;4.40;;
22525;SDS011;11429;50.842;4.386;2022-11-20T16:01:35;10.55;;;4.07;;
22525;SDS011;11429;50.842;4.386;2022-11-20T16:04:01;15.40;;;5.00;;
22525;SDS011;11429;50.842;4.386;2022-11-20T16:06:27;10.45;;;4.88;;
22525;SDS011;11429;50.842;4.386;2022-11-20T16:08:55;8.30;;;3.90;;
22525;SDS011;11429;50.842;4.386;2022-11-20T16:11:21;12.80;;;4.55;;
22525;SDS011;11429;50.842;4.386;2022-11-20T16:13:46;13.63;;;4.15;;
22525;SDS011;11429;50.842;4.386;2022-11-20T16:16:31;12.63;;;4.38;;
22525;SDS011;11429;50.842;4.386;2022-11-20T16:18:59;13.98;;;4.10;;